Time;durP1;ratioP1;P1;durP2;ratioP2;P2;SDS_P1;SDS_P2;PMS_P1;PMS_P2;Temp;Humidity;BMP_temperature;BMP_pressure;BME280_temperature;BME280_humidity;BME280_pressure;Samples;Min_cycle;Max_cycle;Signal;HPM_P1;HPM_P2
2022/05/30 00:02:10;;;;;;;791.97;736.67;;;9.20;99.90;;;;;;5081130;28;20565;-82
2022/05/30 00:04:37;;;;;;;797.77;743.27;;;9.10;99.90;;;;;;5080349;28;20450;-81
2022/05/30 00:07:06;;;;;;;795.77;740.87;;;9.20;99.90;;;;;;5080563;28;20446;-81
2022/05/30 00:09:33;;;;;;;805.67;750.90;;;9.00;99.90;;;;;;5079476;28;20457;-83
2022/05/30 00:12:00;;;;;;;795.57;741.70;;;9.20;99.90;;;;;;5080550;28;20478;-81
2022/05/30 00:14:27;;;;;;;805.17;749.70;;;9.10;99.90;;;;;;5079889;28;20565;-81
2022/05/30 00:16:56;;;;;;;789.00;738.20;;;9.10;99.90;;;;;;5080963;28;20453;-81
2022/05/30 00:19:23;;;;;;;788.10;736.60;;;9.00;99.90;;;;;;5079140;28;20456;-83
2022/05/30 00:21:50;;;;;;;794.60;742.80;;;9.20;99.90;;;;;;5081158;28;20466;-80
2022/05/30 00:24:16;;;;;;;764.53;718.43;;;9.00;99.90;;;;;;5080080;28;20442;-81
2022/05/30 00:26:43;;;;;;;760.50;714.10;;;9.10;99.90;;;;;;5079819;28;20907;-81
2022/05/30 00:29:10;;;;;;;727.73;687.93;;;9.10;99.90;;;;;;5078810;28;20453;-81
2022/05/30 00:31:37;;;;;;;703.63;668.63;;;9.20;99.90;;;;;;5080052;28;20474;-81
2022/05/30 00:34:05;;;;;;;691.73;658.57;;;9.20;99.90;;;;;;5080455;28;20493;-81
2022/05/30 00:36:32;;;;;;;720.63;682.47;;;9.10;99.90;;;;;;5080685;28;20459;-81
2022/05/30 00:38:58;;;;;;;735.53;694.47;;;9.20;99.90;;;;;;5079376;28;20473;-82
2022/05/30 00:41:26;;;;;;;751.27;707.97;;;9.10;99.90;;;;;;5080071;28;20504;-81
2022/05/30 00:43:53;;;;;;;764.50;717.80;;;9.10;99.90;;;;;;5080277;28;20469;-81
2022/05/30 00:46:20;;;;;;;782.73;733.67;;;9.10;99.90;;;;;;5079904;28;20454;-81
2022/05/30 00:48:51;;;;;;;801.20;750.30;;;9.00;99.90;;;;;;5079138;28;20465;-81
2022/05/30 00:51:23;;;;;;;801.57;748.70;;;9.10;99.90;;;;;;5079787;28;20485;-81
2022/05/30 00:53:54;;;;;;;787.87;735.27;;;9.10;99.90;;;;;;5079346;28;20844;-81
2022/05/30 00:56:23;;;;;;;788.27;733.90;;;9.00;99.90;;;;;;5079706;28;20461;-83
2022/05/30 00:58:51;;;;;;;810.63;754.93;;;9.00;99.90;;;;;;5078985;28;20462;-81
2022/05/30 01:01:20;;;;;;;805.70;749.70;;;9.00;99.90;;;;;;5079297;28;20474;-80
2022/05/30 01:06:38;;;;;;;834.67;776.47;;;8.90;99.90;;;;;;5078567;28;20853;-81
2022/05/30 01:09:09;;;;;;;826.70;768.33;;;8.90;99.90;;;;;;5078465;28;20450;-81
2022/05/30 01:11:50;;;;;;;834.50;774.70;;;8.90;99.90;;;;;;5079754;28;20481;-81
2022/05/30 01:14:16;;;;;;;837.87;776.40;;;8.80;99.90;;;;;;5079031;28;20466;-81
2022/05/30 01:16:43;;;;;;;841.63;779.07;;;8.90;99.90;;;;;;5079206;28;20447;-81
2022/05/30 01:19:24;;;;;;;844.27;780.97;;;8.80;99.90;;;;;;5078847;28;20446;-81
2022/05/30 01:22:14;;;;;;;836.40;770.50;;;8.80;99.90;;;;;;5079570;28;20896;-81
2022/05/30 01:24:52;;;;;;;843.27;778.17;;;8.80;99.90;;;;;;5079164;28;20832;-82
2022/05/30 01:27:31;;;;;;;851.43;784.43;;;8.90;99.90;;;;;;5078589;28;20457;-82
2022/05/30 01:30:03;;;;;;;854.10;787.37;;;8.80;99.90;;;;;;5077985;28;20461;-81
2022/05/30 01:32:30;;;;;;;848.77;782.10;;;8.80;99.90;;;;;;5078810;28;20475;-81
2022/05/30 01:34:56;;;;;;;829.17;764.27;;;8.80;99.90;;;;;;5078696;28;20837;-81
2022/05/30 01:37:24;;;;;;;827.33;763.77;;;8.80;99.90;;;;;;5079414;28;20481;-81
2022/05/30 01:39:51;;;;;;;838.90;774.00;;;8.80;99.90;;;;;;5077847;28;20454;-81
2022/05/30 01:42:18;;;;;;;846.40;780.33;;;8.80;99.90;;;;;;5078287;28;20474;-81
2022/05/30 01:44:45;;;;;;;841.40;776.87;;;8.80;99.90;;;;;;5078364;28;20458;-81
2022/05/30 01:47:13;;;;;;;840.67;776.07;;;8.90;99.90;;;;;;5078322;28;20454;-81
2022/05/30 01:49:40;;;;;;;841.43;775.27;;;8.90;99.90;;;;;;5078113;28;20939;-81
2022/05/30 01:52:07;;;;;;;852.23;786.33;;;8.70;99.90;;;;;;5079382;28;20845;-81
2022/05/30 01:54:34;;;;;;;854.20;788.60;;;8.80;99.90;;;;;;5079236;28;20478;-81
2022/05/30 01:57:01;;;;;;;855.83;788.70;;;8.80;99.90;;;;;;5078325;28;20458;-81
2022/05/30 01:59:27;;;;;;;841.60;776.83;;;8.70;99.90;;;;;;5077944;28;20450;-81
2022/05/30 02:01:54;;;;;;;835.27;771.07;;;8.80;99.90;;;;;;5077793;28;20475;-81
2022/05/30 02:04:22;;;;;;;855.57;789.37;;;8.70;99.90;;;;;;5077904;28;20454;-82
2022/05/30 02:06:49;;;;;;;825.77;761.97;;;8.70;99.90;;;;;;5077676;28;20581;-81
2022/05/30 02:09:16;;;;;;;831.07;764.90;;;8.70;99.90;;;;;;5077677;28;20541;-80
2022/05/30 02:11:43;;;;;;;829.87;764.10;;;8.60;99.90;;;;;;5078032;28;20473;-81
2022/05/30 02:14:10;;;;;;;845.37;782.90;;;8.70;99.90;;;;;;5078137;28;20478;-81
2022/05/30 02:19:23;;;;;;;810.67;748.50;;;8.70;99.90;;;;;;5076608;28;20518;-81
2022/05/30 02:21:50;;;;;;;827.77;765.90;;;8.70;99.90;;;;;;5077548;28;20470;-80
2022/05/30 02:24:17;;;;;;;816.43;754.50;;;8.70;99.90;;;;;;5078451;28;20823;-80
2022/05/30 02:26:44;;;;;;;813.60;750.50;;;8.70;99.90;;;;;;5075519;28;20461;-81
2022/05/30 02:29:10;;;;;;;817.60;754.30;;;8.70;99.90;;;;;;5077151;28;20458;-81
2022/05/30 02:31:37;;;;;;;811.87;749.57;;;8.70;99.90;;;;;;5077018;28;20848;-81
2022/05/30 02:36:50;;;;;;;813.63;751.50;;;8.60;99.90;;;;;;5079392;28;20484;-82
2022/05/30 02:39:19;;;;;;;802.70;741.50;;;8.70;99.90;;;;;;5078485;28;20452;-82
2022/05/30 02:41:46;;;;;;;808.37;747.27;;;8.70;99.90;;;;;;5076614;28;20478;-81
2022/05/30 02:44:14;;;;;;;803.87;742.37;;;8.70;99.90;;;;;;5074352;28;20812;-83
2022/05/30 02:46:41;;;;;;;819.03;756.80;;;8.70;99.90;;;;;;5078508;28;20822;-82
2022/05/30 02:49:09;;;;;;;829.87;765.47;;;8.60;99.90;;;;;;5073942;28;20457;-82
2022/05/30 02:51:35;;;;;;;830.50;765.23;;;8.70;99.90;;;;;;5078153;28;20478;-84
2022/05/30 02:54:04;;;;;;;833.70;769.40;;;8.70;99.90;;;;;;5079395;28;20461;-81
2022/05/30 02:56:31;;;;;;;820.23;757.07;;;8.70;99.90;;;;;;5078153;28;20451;-81
2022/05/30 02:58:59;;;;;;;823.33;759.57;;;8.60;99.90;;;;;;5076560;28;20533;-80
2022/05/30 03:01:26;;;;;;;842.13;776.63;;;8.60;99.90;;;;;;5084721;28;20496;-81
2022/05/30 03:03:53;;;;;;;844.90;777.90;;;8.60;99.90;;;;;;5081794;28;20439;-82
2022/05/30 03:06:23;;;;;;;850.93;783.23;;;8.60;99.90;;;;;;5074770;28;20446;-82
2022/05/30 03:08:50;;;;;;;842.07;774.70;;;8.60;99.90;;;;;;5078743;28;20454;-82
2022/05/30 03:11:18;;;;;;;847.30;779.90;;;8.70;99.90;;;;;;5078370;28;20862;-82
2022/05/30 03:13:45;;;;;;;853.77;786.23;;;8.60;99.90;;;;;;5076111;28;20450;-83
2022/05/30 03:16:12;;;;;;;841.03;773.30;;;8.50;99.90;;;;;;5059018;28;20546;-81
2022/05/30 03:18:39;;;;;;;830.87;764.47;;;8.70;99.90;;;;;;5058118;28;20459;-82
2022/05/30 03:21:06;;;;;;;836.50;769.20;;;8.60;99.90;;;;;;5055755;28;20880;-82
2022/05/30 03:23:33;;;;;;;849.90;782.50;;;8.60;99.90;;;;;;5059278;28;20489;-81
2022/05/30 03:26:00;;;;;;;844.37;777.57;;;8.60;99.90;;;;;;5060270;28;20452;-82
2022/05/30 03:28:28;;;;;;;849.97;782.40;;;8.70;99.90;;;;;;5063459;28;20446;-82
2022/05/30 03:30:55;;;;;;;856.33;786.70;;;8.60;99.90;;;;;;5078126;28;20509;-81
2022/05/30 03:33:22;;;;;;;857.27;787.07;;;8.70;99.90;;;;;;5079885;28;20473;-83
2022/05/30 03:35:49;;;;;;;843.63;775.00;;;8.70;99.90;;;;;;5077034;28;20482;-81
2022/05/30 03:38:15;;;;;;;851.67;782.20;;;8.60;99.90;;;;;;5077637;28;20825;-81
2022/05/30 03:40:43;;;;;;;847.43;778.10;;;8.60;99.90;;;;;;5078905;28;20470;-81
2022/05/30 03:43:11;;;;;;;841.40;772.50;;;8.70;99.90;;;;;;5076972;28;20958;-81
2022/05/30 03:45:41;;;;;;;829.93;763.57;;;8.60;99.90;;;;;;5078356;28;20442;-81
2022/05/30 03:48:10;;;;;;;817.57;752.47;;;8.70;99.90;;;;;;5078219;28;20955;-80
2022/05/30 03:50:39;;;;;;;820.40;753.87;;;8.60;99.90;;;;;;5076706;28;20892;-82
2022/05/30 03:53:06;;;;;;;826.87;759.20;;;8.70;99.90;;;;;;5077731;28;20830;-81
2022/05/30 03:55:36;;;;;;;822.07;754.77;;;8.70;99.90;;;;;;5079089;28;20470;-81
2022/05/30 03:58:03;;;;;;;821.10;753.90;;;8.70;99.90;;;;;;5077023;28;20454;-81
2022/05/30 04:00:31;;;;;;;826.17;758.60;;;8.70;99.90;;;;;;5077435;28;20466;-81
2022/05/30 04:03:00;;;;;;;826.27;758.40;;;8.80;99.90;;;;;;5078397;28;20457;-81
2022/05/30 04:05:27;;;;;;;825.30;757.43;;;8.80;99.90;;;;;;5076972;28;20447;-81
2022/05/30 04:07:57;;;;;;;830.03;761.20;;;8.80;99.90;;;;;;5077037;28;20449;-81
2022/05/30 04:10:24;;;;;;;825.37;758.10;;;8.80;99.90;;;;;;5078406;28;20454;-82
2022/05/30 04:12:52;;;;;;;838.80;771.47;;;8.80;99.90;;;;;;5076731;28;20446;-85
2022/05/30 04:15:22;;;;;;;826.07;759.17;;;8.80;99.90;;;;;;5076854;28;20484;-83
2022/05/30 04:17:49;;;;;;;822.97;757.00;;;8.90;99.90;;;;;;5078987;28;20449;-81
2022/05/30 04:20:18;;;;;;;823.97;757.97;;;8.90;99.90;;;;;;5076825;28;20478;-82
2022/05/30 04:22:47;;;;;;;828.37;762.93;;;9.00;99.90;;;;;;5079288;28;20442;-81
2022/05/30 04:25:14;;;;;;;817.20;752.60;;;9.00;99.90;;;;;;5078324;28;20442;-81
2022/05/30 04:27:41;;;;;;;806.30;742.07;;;9.20;99.90;;;;;;5076280;28;20797;-83
2022/05/30 04:30:09;;;;;;;812.03;748.40;;;9.20;99.90;;;;;;5076278;28;20442;-81
2022/05/30 04:32:37;;;;;;;809.07;746.17;;;9.30;99.90;;;;;;5078093;28;20451;-82
2022/05/30 04:35:05;;;;;;;819.40;756.40;;;9.30;99.90;;;;;;5074222;28;20465;-83
2022/05/30 04:37:33;;;;;;;815.30;751.87;;;9.40;99.90;;;;;;5077058;28;20462;-81
2022/05/30 04:40:00;;;;;;;820.17;758.10;;;9.40;99.90;;;;;;5077227;28;20455;-82
2022/05/30 04:42:27;;;;;;;815.63;756.27;;;9.40;99.90;;;;;;5079095;28;20468;-81
2022/05/30 04:44:53;;;;;;;801.23;747.40;;;9.50;99.90;;;;;;5081328;28;20450;-81
2022/05/30 04:47:20;;;;;;;779.87;730.80;;;9.60;99.90;;;;;;5080971;28;20446;-81
2022/05/30 04:49:49;;;;;;;761.93;716.73;;;9.60;99.90;;;;;;5080803;28;21078;-82
2022/05/30 04:52:16;;;;;;;736.93;695.77;;;9.60;99.90;;;;;;5081289;28;20482;-81
2022/05/30 04:54:44;;;;;;;698.43;664.10;;;9.70;99.90;;;;;;5080641;28;20457;-82
2022/05/30 04:57:11;;;;;;;716.37;679.10;;;9.80;99.90;;;;;;5077582;28;20451;-82
2022/05/30 04:59:40;;;;;;;687.33;653.27;;;9.80;99.90;;;;;;5081659;28;20450;-81
2022/05/30 05:02:08;;;;;;;650.93;620.33;;;9.90;99.90;;;;;;5077182;28;20470;-82
2022/05/30 05:04:35;;;;;;;644.23;614.90;;;9.90;99.90;;;;;;5078840;28;20454;-81
2022/05/30 05:07:04;;;;;;;667.80;636.50;;;10.00;99.90;;;;;;5072152;28;20457;-83
2022/05/30 05:09:40;;;;;;;641.07;611.97;;;10.10;99.90;;;;;;5077721;28;20516;-81
2022/05/30 05:12:08;;;;;;;633.70;605.43;;;10.20;99.90;;;;;;5081052;28;20670;-81
2022/05/30 05:14:35;;;;;;;498.70;478.80;;;10.30;99.90;;;;;;5088615;28;20447;-81
2022/05/30 05:17:02;;;;;;;345.17;333.90;;;10.30;99.90;;;;;;5085404;28;20454;-81
2022/05/30 05:19:30;;;;;;;236.00;228.10;;;10.30;99.90;;;;;;5085586;28;20447;-82
2022/05/30 05:21:57;;;;;;;150.13;144.20;;;10.50;99.90;;;;;;5083267;28;21064;-82
2022/05/30 05:24:27;;;;;;;144.50;139.10;;;10.40;99.90;;;;;;5072907;28;20473;-82
2022/05/30 05:26:53;;;;;;;76.33;72.83;;;10.50;99.90;;;;;;5081149;28;20446;-82
2022/05/30 05:29:23;;;;;;;67.37;64.47;;;10.60;99.90;;;;;;5078997;28;20450;-82
2022/05/30 05:31:52;;;;;;;38.27;35.87;;;10.70;99.90;;;;;;5081126;28;20477;-82
2022/05/30 05:34:19;;;;;;;46.60;44.00;;;10.60;99.90;;;;;;5084963;28;21008;-82
2022/05/30 05:36:47;;;;;;;21.80;20.20;;;10.90;99.90;;;;;;5082369;28;20474;-83
2022/05/30 05:39:15;;;;;;;27.93;26.30;;;10.80;99.90;;;;;;5077495;28;20465;-82
2022/05/30 05:41:43;;;;;;;18.10;16.60;;;10.90;99.90;;;;;;5076115;28;20470;-82
2022/05/30 05:44:10;;;;;;;14.63;11.43;;;10.90;99.90;;;;;;5081816;28;20842;-84
2022/05/30 05:46:38;;;;;;;17.80;16.50;;;11.00;99.90;;;;;;5077448;28;20820;-82
2022/05/30 05:49:09;;;;;;;12.00;6.73;;;11.20;99.90;;;;;;5078911;28;20450;-82
2022/05/30 05:51:36;;;;;;;6.53;4.47;;;11.20;99.30;;;;;;5071898;28;20505;-84
2022/05/30 05:54:03;;;;;;;15.10;5.77;;;11.20;98.70;;;;;;5077646;28;20454;-82
2022/05/30 05:56:31;;;;;;;5.83;3.57;;;11.20;98.10;;;;;;5079152;28;20494;-81
2022/05/30 05:58:58;;;;;;;16.97;5.13;;;11.20;97.60;;;;;;5077683;28;20969;-82
2022/05/30 06:01:26;;;;;;;10.57;3.97;;;11.30;97.20;;;;;;5075173;28;20868;-84
2022/05/30 06:03:56;;;;;;;9.13;4.43;;;11.30;95.80;;;;;;5078485;28;20458;-83
2022/05/30 06:06:26;;;;;;;7.73;3.20;;;11.30;95.70;;;;;;5077894;28;20442;-84
2022/05/30 06:08:54;;;;;;;10.70;4.43;;;11.40;94.00;;;;;;5077972;28;20477;-82
2022/05/30 06:11:21;;;;;;;10.60;4.00;;;11.60;94.90;;;;;;5080811;28;20500;-83
2022/05/30 06:13:49;;;;;;;11.60;2.80;;;11.50;92.20;;;;;;5082736;28;20457;-84
2022/05/30 06:16:19;;;;;;;9.93;4.27;;;11.60;91.00;;;;;;5083141;28;20477;-82
2022/05/30 06:18:46;;;;;;;7.70;3.10;;;11.70;93.50;;;;;;5080851;28;20768;-82
2022/05/30 06:21:14;;;;;;;9.20;4.30;;;11.80;91.70;;;;;;5075216;28;20489;-83
2022/05/30 06:23:44;;;;;;;8.97;3.53;;;11.80;91.10;;;;;;5081854;28;20450;-83
2022/05/30 06:26:11;;;;;;;9.93;3.73;;;11.90;92.20;;;;;;5081073;28;20942;-82
2022/05/30 06:28:39;;;;;;;14.57;4.20;;;12.00;90.40;;;;;;5083034;28;20831;-82
2022/05/30 06:31:08;;;;;;;7.63;2.73;;;11.80;90.30;;;;;;5085485;28;20850;-84
2022/05/30 06:33:35;;;;;;;14.67;4.17;;;11.80;88.20;;;;;;5084285;28;20504;-84
2022/05/30 06:36:03;;;;;;;13.33;3.20;;;11.90;86.40;;;;;;5082855;28;20471;-82
2022/05/30 06:38:31;;;;;;;9.80;3.67;;;11.90;86.30;;;;;;5080285;28;20450;-82
2022/05/30 06:40:58;;;;;;;8.60;3.50;;;11.90;87.90;;;;;;5083102;28;20474;-82
2022/05/30 06:43:25;;;;;;;10.00;4.47;;;12.10;82.90;;;;;;5082144;28;20453;-84
2022/05/30 06:45:51;;;;;;;15.20;4.40;;;12.20;79.50;;;;;;5082079;28;20446;-83
2022/05/30 06:48:18;;;;;;;8.13;3.67;;;12.40;81.10;;;;;;5083218;28;20447;-83
2022/05/30 06:50:45;;;;;;;13.43;3.50;;;12.60;80.80;;;;;;5085253;28;20482;-82
2022/05/30 06:53:11;;;;;;;9.43;3.10;;;13.00;75.30;;;;;;5086105;28;20517;-83
2022/05/30 06:55:40;;;;;;;8.67;2.90;;;13.50;73.30;;;;;;5083894;28;20467;-81
2022/05/30 06:58:15;;;;;;;9.83;3.37;;;13.40;67.70;;;;;;5085757;28;20458;-81
2022/05/30 07:00:44;;;;;;;10.63;3.40;;;13.50;65.80;;;;;;5084679;28;20469;-82
2022/05/30 07:03:12;;;;;;;8.57;2.70;;;13.90;64.50;;;;;;5083581;28;20442;-81
2022/05/30 07:05:39;;;;;;;10.67;3.53;;;13.80;62.40;;;;;;5084781;28;20955;-81
2022/05/30 07:08:07;;;;;;;8.57;3.00;;;13.70;59.00;;;;;;5072789;28;20573;-84
2022/05/30 07:10:35;;;;;;;14.13;3.20;;;13.80;61.50;;;;;;5061041;28;20472;-81
2022/05/30 07:13:04;;;;;;;14.03;3.10;;;14.00;59.40;;;;;;5082939;28;20500;-82
2022/05/30 07:15:34;;;;;;;10.43;3.27;;;14.10;52.40;;;;;;5082116;28;20470;-81
2022/05/30 07:18:07;;;;;;;12.47;3.50;;;14.20;56.00;;;;;;5081927;28;20541;-80
2022/05/30 07:20:33;;;;;;;10.20;3.50;;;14.50;54.10;;;;;;5084892;28;20477;-82
2022/05/30 07:23:01;;;;;;;13.07;3.20;;;14.50;52.40;;;;;;5082346;28;20491;-82
2022/05/30 07:25:28;;;;;;;14.50;2.70;;;14.70;48.30;;;;;;5084100;28;20444;-81
2022/05/30 07:27:54;;;;;;;12.43;3.17;;;15.00;50.80;;;;;;5078517;28;20509;-81
2022/05/30 07:30:22;;;;;;;10.47;3.10;;;15.30;48.80;;;;;;5077455;28;20785;-83
2022/05/30 07:32:49;;;;;;;9.43;2.27;;;15.60;46.70;;;;;;5079040;28;20460;-84
2022/05/30 07:35:16;;;;;;;7.60;2.70;;;15.40;44.60;;;;;;5081014;28;20997;-83
2022/05/30 07:37:43;;;;;;;15.00;2.70;;;15.30;39.20;;;;;;5077974;28;20450;-83
2022/05/30 07:40:10;;;;;;;12.50;2.87;;;15.50;39.20;;;;;;5079916;28;20450;-82
2022/05/30 07:42:37;;;;;;;9.67;2.27;;;15.40;40.10;;;;;;5081360;28;20452;-83
2022/05/30 07:45:04;;;;;;;9.00;2.27;;;15.50;37.00;;;;;;5080413;28;20458;-82
2022/05/30 07:47:32;;;;;;;6.13;2.00;;;15.80;38.10;;;;;;5080791;28;20447;-83
2022/05/30 07:50:02;;;;;;;11.40;2.80;;;16.50;37.40;;;;;;5080354;28;20454;-83
2022/05/30 07:52:29;;;;;;;9.77;2.50;;;17.10;35.40;;;;;;5079772;28;20475;-83
2022/05/30 07:54:56;;;;;;;14.32;3.40;;;17.40;32.80;;;;;;5079525;28;20446;-84
2022/05/30 07:57:50;;;;;;;15.77;4.37;;;17.70;30.90;;;;;;5080348;28;20224;-82
2022/05/30 08:00:12;;;;;;;10.73;4.50;;;17.50;25.00;;;;;;5079521;28;20880;-83
2022/05/30 08:02:40;;;;;;;10.37;3.10;;;17.10;28.40;;;;;;5079478;28;20825;-84
2022/05/30 08:05:10;;;;;;;11.13;4.30;;;17.90;28.80;;;;;;5076791;28;20451;-84
2022/05/30 08:07:37;;;;;;;14.20;4.43;;;18.30;24.80;;;;;;5078085;28;20450;-83
2022/05/30 08:10:06;;;;;;;12.30;5.10;;;18.10;21.30;;;;;;5076727;28;20830;-87
2022/05/30 08:12:33;;;;;;;13.87;4.37;;;17.90;19.00;;;;;;5076543;28;20900;-84
2022/05/30 08:15:00;;;;;;;13.63;4.87;;;17.90;24.60;;;;;;5076960;28;20752;-83
2022/05/30 08:17:27;;;;;;;11.40;4.03;;;18.00;24.10;;;;;;5082164;28;20478;-83
2022/05/30 08:19:55;;;;;;;11.57;3.60;;;18.00;24.40;;;;;;5083619;28;20458;-81
2022/05/30 08:22:23;;;;;;;9.87;3.80;;;18.20;21.60;;;;;;5081460;28;20527;-82
2022/05/30 08:24:51;;;;;;;16.07;5.77;;;17.50;22.90;;;;;;5081857;28;20452;-82
2022/05/30 08:27:19;;;;;;;13.00;5.60;;;16.50;24.50;;;;;;5079603;28;20973;-82
2022/05/30 08:29:45;;;;;;;11.90;4.70;;;16.20;27.00;;;;;;5080404;28;20450;-82
2022/05/30 08:32:13;;;;;;;16.37;5.17;;;15.90;28.00;;;;;;5081184;28;20481;-82
2022/05/30 08:34:41;;;;;;;14.47;4.70;;;15.40;31.00;;;;;;5080803;28;20455;-82
2022/05/30 08:37:10;;;;;;;12.10;4.07;;;15.00;32.70;;;;;;5081299;28;20552;-82
2022/05/30 08:42:27;;;;;;;14.67;4.30;;;14.50;36.30;;;;;;5081856;28;20480;-82
2022/05/30 08:44:54;;;;;;;14.63;4.57;;;14.70;36.20;;;;;;5080952;28;20819;-83
2022/05/30 08:47:42;;;;;;;14.13;4.50;;;14.90;38.00;;;;;;5080452;28;20476;-82
2022/05/30 08:50:14;;;;;;;17.73;4.40;;;14.80;32.00;;;;;;5080373;28;20450;-82
2022/05/30 08:52:58;;;;;;;9.73;4.30;;;15.20;30.80;;;;;;5081116;28;20931;-81
2022/05/30 08:55:37;;;;;;;12.15;4.47;;;15.40;29.50;;;;;;5080721;28;20454;-81
2022/05/30 08:58:13;;;;;;;10.73;3.73;;;15.50;29.30;;;;;;5080550;28;20454;-82
2022/05/30 09:00:48;;;;;;;9.40;3.60;;;15.50;28.60;;;;;;5079426;28;20469;-81
2022/05/30 09:03:20;;;;;;;11.93;5.40;;;15.80;29.90;;;;;;5080157;28;20450;-82
2022/05/30 09:05:51;;;;;;;14.30;4.17;;;16.10;27.00;;;;;;5080455;28;20451;-81
2022/05/30 09:08:26;;;;;;;10.40;3.60;;;16.20;25.00;;;;;;5079844;28;20455;-81
2022/05/30 09:10:57;;;;;;;9.00;3.80;;;16.50;26.40;;;;;;5080142;28;20867;-82
2022/05/30 09:13:30;;;;;;;9.67;3.17;;;16.50;25.40;;;;;;5080593;28;20885;-82
2022/05/30 09:16:03;;;;;;;9.37;3.70;;;17.20;24.20;;;;;;5080467;28;20443;-83
2022/05/30 09:18:34;;;;;;;10.67;4.23;;;16.80;23.90;;;;;;5079532;28;20920;-82
2022/05/30 09:21:02;;;;;;;9.50;3.50;;;17.10;24.90;;;;;;5080140;28;20901;-82
2022/05/30 09:23:30;;;;;;;9.60;4.37;;;17.30;26.50;;;;;;5080361;28;20841;-82
2022/05/30 09:25:57;;;;;;;11.40;4.30;;;17.40;24.40;;;;;;5078537;28;20948;-82
2022/05/30 09:28:25;;;;;;;17.50;5.50;;;16.70;28.30;;;;;;5079477;28;20449;-82
2022/05/30 09:30:56;;;;;;;8.00;3.13;;;17.40;29.20;;;;;;5080134;28;20474;-82
2022/05/30 09:33:30;;;;;;;6.67;3.00;;;17.20;23.10;;;;;;5080812;28;20452;-82
2022/05/30 09:36:17;;;;;;;10.57;2.80;;;17.10;21.90;;;;;;5081036;28;20438;-82
2022/05/30 09:38:48;;;;;;;13.57;3.30;;;17.30;24.70;;;;;;5080026;28;20442;-82
2022/05/30 09:41:21;;;;;;;7.50;3.30;;;17.90;21.30;;;;;;5080328;28;20470;-82
2022/05/30 09:43:54;;;;;;;7.40;2.50;;;18.20;20.10;;;;;;5079948;28;20452;-82
2022/05/30 09:46:27;;;;;;;8.77;3.33;;;17.60;18.00;;;;;;5080348;28;20432;-82
2022/05/30 09:49:02;;;;;;;9.03;2.83;;;18.00;23.20;;;;;;5079962;28;20446;-82
2022/05/30 09:51:39;;;;;;;6.60;3.07;;;17.90;20.20;;;;;;5080503;28;20480;-82
2022/05/30 09:54:09;;;;;;;10.40;3.30;;;17.70;22.40;;;;;;5080320;28;20460;-82
2022/05/30 09:56:40;;;;;;;9.57;3.30;;;17.60;18.70;;;;;;5080481;28;20474;-82
2022/05/30 09:59:19;;;;;;;8.80;3.03;;;18.40;21.80;;;;;;5078842;28;20454;-82
2022/05/30 10:01:50;;;;;;;7.90;2.57;;;18.80;17.50;;;;;;5079818;28;21059;-82
2022/05/30 10:04:29;;;;;;;7.97;3.30;;;19.30;17.00;;;;;;5080500;28;20454;-82
2022/05/30 10:07:13;;;;;;;5.93;2.93;;;18.80;15.60;;;;;;5080080;28;20443;-82
2022/05/30 10:09:54;;;;;;;7.07;3.30;;;18.40;18.60;;;;;;5079817;28;20459;-82
2022/05/30 10:12:33;;;;;;;8.90;3.60;;;18.10;18.30;;;;;;5079718;28;20483;-82
2022/05/30 10:15:00;;;;;;;9.77;3.70;;;17.50;17.90;;;;;;5080617;28;20455;-82
2022/05/30 10:17:32;;;;;;;10.60;4.20;;;18.10;18.30;;;;;;5080287;28;20475;-83
2022/05/30 10:20:02;;;;;;;9.60;4.27;;;19.30;19.50;;;;;;5080229;28;20451;-82
2022/05/30 10:28:45;;;;;;;6.70;2.50;;;18.50;18.60;;;;;;5079427;28;20422;-82
2022/05/30 10:31:23;;;;;;;8.77;2.67;;;17.90;15.90;;;;;;5079855;28;20475;-82
2022/05/30 10:34:13;;;;;;;6.70;1.90;;;18.20;16.30;;;;;;5079692;28;20443;-82
2022/05/30 10:36:54;;;;;;;12.90;3.00;;;18.70;18.50;;;;;;5079615;28;20481;-83
2022/05/30 10:39:35;;;;;;;6.83;2.50;;;19.10;16.40;;;;;;5078891;28;20457;-83
2022/05/30 10:42:08;;;;;;;6.90;2.67;;;19.20;9.20;;;;;;5080138;28;20483;-84
2022/05/30 10:44:39;;;;;;;7.97;2.47;;;19.90;7.70;;;;;;5080295;28;20480;-82
2022/05/30 10:47:15;;;;;;;7.00;2.57;;;20.20;6.70;;;;;;5080676;28;20559;-82
2022/05/30 10:49:47;;;;;;;7.33;2.33;;;21.20;5.40;;;;;;5079892;28;20455;-83
2022/05/30 10:52:20;;;;;;;5.60;2.30;;;21.30;7.10;;;;;;5080852;28;20481;-83
2022/05/30 10:54:52;;;;;;;7.40;3.10;;;21.60;5.00;;;;;;5079888;28;20454;-82
2022/05/30 10:57:26;;;;;;;8.20;2.50;;;21.30;1.70;;;;;;5080201;28;20482;-83
2022/05/30 10:59:57;;;;;;;6.80;2.33;;;21.40;6.30;;;;;;5080868;28;20461;-82
2022/05/30 11:02:30;;;;;;;5.50;2.00;;;21.60;5.00;;;;;;5079983;28;20472;-82
2022/05/30 11:05:02;;;;;;;8.63;2.07;;;20.90;4.70;;;;;;5080160;28;20458;-84
2022/05/30 11:07:43;;;;;;;5.50;2.13;;;20.90;4.50;;;;;;5080967;28;20906;-83
2022/05/30 11:10:24;;;;;;;12.27;3.20;;;21.30;4.90;;;;;;5080142;28;20495;-81
2022/05/30 11:13:00;;;;;;;9.53;3.07;;;21.60;2.20;;;;;;5081270;28;20437;-82
2022/05/30 11:15:30;;;;;;;6.03;2.30;;;21.30;2.40;;;;;;5080812;28;20457;-83
2022/05/30 11:18:02;;;;;;;8.13;2.10;;;22.00;1.00;;;;;;5080334;28;20477;-82
2022/05/30 11:20:34;;;;;;;6.93;2.27;;;21.10;1.00;;;;;;5079191;28;20454;-82
2022/05/30 11:23:01;;;;;;;6.00;2.10;;;20.70;4.00;;;;;;5080466;28;20452;-83
2022/05/30 11:25:45;;;;;;;5.77;1.10;;;19.80;4.40;;;;;;5080376;28;20448;-82
2022/05/30 11:28:22;;;;;;;5.63;1.30;;;20.00;1.00;;;;;;5078834;28;20456;-82
2022/05/30 11:30:53;;;;;;;8.03;2.20;;;20.60;1.00;;;;;;5079641;28;20862;-83
2022/05/30 11:33:54;;;;;;;13.50;2.40;;;19.90;1.00;;;;;;5079437;28;20451;-82
2022/05/30 11:36:49;;;;;;;5.33;2.40;;;19.90;1.00;;;;;;5079880;28;20536;-82
2022/05/30 11:39:27;;;;;;;10.00;2.60;;;20.70;2.90;;;;;;5060891;28;20453;-82
2022/05/30 11:42:04;;;;;;;6.50;2.30;;;20.90;2.10;;;;;;5078942;28;21007;-82
2022/05/30 11:44:49;;;;;;;10.90;2.60;;;21.20;1.00;;;;;;5079628;28;20470;-82
2022/05/30 11:47:31;;;;;;;6.60;1.93;;;20.50;2.90;;;;;;5078488;28;20462;-82
2022/05/30 11:50:09;;;;;;;5.37;1.17;;;19.60;4.40;;;;;;5079612;28;20460;-82
2022/05/30 11:52:49;;;;;;;6.47;1.57;;;18.20;6.90;;;;;;5084228;28;20449;-82
2022/05/30 11:55:22;;;;;;;9.53;1.80;;;17.40;10.30;;;;;;5083266;28;20431;-82
2022/05/30 11:57:53;;;;;;;4.47;1.10;;;17.10;13.10;;;;;;5083339;28;20487;-82
2022/05/30 12:00:32;;;;;;;5.50;1.93;;;16.80;9.90;;;;;;5082865;28;20462;-82
2022/05/30 12:03:18;;;;;;;6.73;1.50;;;16.70;11.90;;;;;;5083851;28;20803;-82
2022/05/30 12:06:01;;;;;;;6.17;1.53;;;16.30;8.70;;;;;;5082978;28;20464;-82
2022/05/30 12:08:41;;;;;;;5.27;1.93;;;16.70;9.80;;;;;;5082500;28;20528;-82
2022/05/30 12:11:25;;;;;;;6.53;2.00;;;17.00;10.00;;;;;;5082967;28;20474;-84
2022/05/30 12:14:06;;;;;;;5.10;1.20;;;17.30;6.40;;;;;;5082929;28;20438;-82
2022/05/30 12:16:46;;;;;;;6.43;1.30;;;17.40;8.90;;;;;;5083491;28;20451;-82
2022/05/30 12:25:45;;;;;;;7.30;1.80;;;17.20;8.80;;;;;;5029871;28;20877;-82
2022/05/30 12:28:52;;;;;;;4.63;1.43;;;17.20;7.00;;;;;;5081195;28;20454;-80
2022/05/30 12:31:35;;;;;;;6.83;1.50;;;17.50;7.70;;;;;;5082007;28;20497;-82
2022/05/30 12:34:05;;;;;;;5.93;1.20;;;17.50;5.20;;;;;;5082329;28;20480;-82
2022/05/30 12:36:38;;;;;;;7.07;1.70;;;18.10;5.50;;;;;;5081368;28;21035;-83
2022/05/30 12:39:33;;;;;;;5.23;1.30;;;18.40;3.40;;;;;;5080321;28;20460;-81
2022/05/30 12:42:07;;;;;;;5.33;1.50;;;18.40;4.60;;;;;;5080963;28;20497;-82
2022/05/30 12:44:57;;;;;;;5.57;1.33;;;18.20;2.20;;;;;;5081146;28;20473;-82
2022/05/30 12:47:30;;;;;;;7.87;1.47;;;17.90;1.80;;;;;;5081441;28;20433;-82
2022/05/30 12:50:29;;;;;;;5.10;1.20;;;17.50;2.70;;;;;;5081873;28;20448;-82
2022/05/30 12:53:00;;;;;;;7.63;2.00;;;17.50;6.20;;;;;;5073963;28;20460;-82
2022/05/30 12:55:37;;;;;;;4.87;1.60;;;17.30;2.60;;;;;;5082526;28;20438;-82
2022/05/30 12:58:06;;;;;;;6.87;1.50;;;17.20;5.70;;;;;;5081907;28;21061;-82
2022/05/30 13:00:53;;;;;;;5.60;1.30;;;17.40;3.50;;;;;;5081659;28;20482;-81
2022/05/30 13:03:36;;;;;;;5.97;1.53;;;17.60;5.20;;;;;;5080858;28;20437;-82
2022/05/30 13:06:23;;;;;;;5.80;1.40;;;17.20;2.60;;;;;;5081474;28;20482;-81
2022/05/30 13:09:10;;;;;;;6.67;1.60;;;17.50;2.70;;;;;;5080137;28;20435;-82
2022/05/30 13:12:08;;;;;;;7.50;1.77;;;17.80;6.70;;;;;;5080700;28;20474;-81
2022/05/30 13:15:14;;;;;;;5.73;1.43;;;18.00;5.50;;;;;;5080891;28;20438;-82
2022/05/30 13:17:50;;;;;;;8.00;1.70;;;18.40;6.30;;;;;;4998806;28;20490;-81